Time;durP1;ratioP1;P1;durP2;ratioP2;P2;SDS_P1;SDS_P2;PMS_P1;PMS_P2;Temp;Humidity;BMP_temperature;BMP_pressure;BME280_temperature;BME280_humidity;BME280_pressure;Samples;Min_cycle;Max_cycle;Signal;HPM_P1;HPM_P2
2021/05/19 00:01:33;;;;;;;0.80;0.80;;;;;;;12.82;61.67;99447.34;4360931;32;34827;-87
2021/05/19 00:04:01;;;;;;;1.80;1.00;;;;;;;12.76;61.84;99445.91;4360351;32;34851;-86
2021/05/19 00:06:29;;;;;;;7.03;1.08;;;;;;;12.74;62.25;99445.16;4359764;32;33056;-86
2021/05/19 00:08:58;;;;;;;1.20;1.10;;;;;;;13.05;61.00;99441.56;4373508;32;33654;-86
2021/05/19 00:11:26;;;;;;;2.92;1.00;;;;;;;12.75;62.16;99440.69;4367498;32;34342;-86
2021/05/19 00:13:54;;;;;;;1.40;1.12;;;;;;;12.44;63.12;99445.13;4366106;32;34892;-85
2021/05/19 00:16:22;;;;;;;2.95;2.20;;;;;;;12.42;63.31;99439.03;4372999;32;34134;-86
2021/05/19 00:18:50;;;;;;;4.93;3.20;;;;;;;12.53;62.97;99431.34;4371780;32;34524;-86
2021/05/19 00:21:18;;;;;;;5.53;3.42;;;;;;;12.70;62.26;99429.50;4372261;32;34787;-85
2021/05/19 00:23:46;;;;;;;4.62;3.75;;;;;;;12.68;62.38;99424.31;4363413;32;33753;-87
2021/05/19 00:26:14;;;;;;;2.92;2.58;;;;;;;12.54;62.54;99418.97;4360366;32;34074;-87
2021/05/19 00:28:44;;;;;;;2.03;1.73;;;;;;;12.41;62.90;99425.91;4372412;32;34241;-85
2021/05/19 00:31:14;;;;;;;1.45;1.35;;;;;;;12.29;63.80;99427.44;4366952;32;34802;-85
2021/05/19 00:33:43;;;;;;;3.53;1.45;;;;;;;12.40;63.44;99419.75;4362074;32;32818;-85
2021/05/19 00:36:11;;;;;;;2.50;1.65;;;;;;;12.56;62.98;99419.72;4374823;32;34145;-85
2021/05/19 00:38:39;;;;;;;1.52;1.37;;;;;;;12.37;63.35;99422.56;4360945;32;34488;-87
2021/05/19 00:41:08;;;;;;;1.83;1.10;;;;;;;12.43;63.34;99414.25;4371793;32;34488;-87
2021/05/19 00:43:36;;;;;;;1.35;1.10;;;;;;;12.44;63.51;99423.94;4374180;32;33554;-87
2021/05/19 00:46:05;;;;;;;2.60;1.10;;;;;;;12.51;63.24;99435.88;4362263;32;34554;-85
2021/05/19 00:48:34;;;;;;;0.95;0.90;;;;;;;12.49;63.23;99426.31;4374141;32;32652;-84
2021/05/19 00:51:03;;;;;;;0.95;0.85;;;;;;;12.26;63.30;99443.50;4374482;32;33492;-85
2021/05/19 00:53:32;;;;;;;1.48;1.00;;;;;;;12.16;63.51;99440.53;4374709;32;34538;-85
2021/05/19 00:56:01;;;;;;;2.37;1.05;;;;;;;12.18;63.48;99437.78;4373600;32;33739;-85
2021/05/19 00:58:29;;;;;;;1.37;1.08;;;;;;;12.28;63.29;99433.69;4374629;32;33939;-85
2021/05/19 01:00:57;;;;;;;2.12;1.00;;;;;;;12.39;62.99;99430.41;4360389;32;32541;-85
2021/05/19 01:03:26;;;;;;;2.35;1.20;;;;;;;12.37;62.91;99432.31;4374796;32;34339;-85
2021/05/19 01:05:59;;;;;;;2.78;1.00;;;;;;;12.42;62.89;99440.84;4373989;32;33129;-85
2021/05/19 01:11:17;;;;;;;4.78;1.20;;;;;;;12.19;63.66;99444.78;4374358;32;33812;-85
2021/05/19 01:13:46;;;;;;;4.45;0.98;;;;;;;12.09;64.27;99446.25;4362259;32;33115;-85
2021/05/19 01:16:15;;;;;;;1.42;1.10;;;;;;;12.09;64.10;99443.59;4361851;32;34595;-85
2021/05/19 01:18:43;;;;;;;2.53;1.10;;;;;;;12.30;63.39;99437.97;4374741;32;32223;-85
2021/05/19 01:21:11;;;;;;;1.80;1.17;;;;;;;12.36;63.26;99449.16;4374834;32;34089;-85
2021/05/19 01:23:40;;;;;;;1.30;0.75;;;;;;;12.32;63.31;99445.81;4374368;32;33653;-85
2021/05/19 01:26:10;;;;;;;3.10;0.95;;;;;;;12.39;63.11;99441.00;4374481;32;34165;-85
2021/05/19 01:28:40;;;;;;;2.58;0.90;;;;;;;12.25;63.63;99439.16;4374740;32;34347;-85
2021/05/19 01:31:11;;;;;;;1.55;1.12;;;;;;;12.20;63.42;99441.19;4372854;32;34512;-86
2021/05/19 01:33:40;;;;;;;1.92;1.00;;;;;;;12.39;63.12;99436.59;4374568;32;33911;-85
2021/05/19 01:36:08;;;;;;;2.58;1.20;;;;;;;12.46;63.11;99431.78;4362318;32;32542;-85
2021/05/19 01:38:37;;;;;;;3.37;1.00;;;;;;;12.43;63.32;99440.75;4374630;32;33592;-85
2021/05/19 01:41:05;;;;;;;2.70;1.05;;;;;;;12.68;62.33;99434.91;4374677;32;32875;-85
2021/05/19 01:43:36;;;;;;;2.22;1.10;;;;;;;12.60;62.18;99434.50;4368132;32;32688;-85
2021/05/19 01:46:04;;;;;;;3.67;1.23;;;;;;;12.32;62.97;99437.87;4374241;32;33650;-85
2021/05/19 01:48:34;;;;;;;1.33;1.00;;;;;;;12.47;62.51;99436.97;4374608;32;34212;-85
2021/05/19 01:51:04;;;;;;;6.18;1.08;;;;;;;12.33;62.92;99442.22;4374721;32;33458;-85
2021/05/19 01:53:33;;;;;;;1.62;1.05;;;;;;;12.40;62.67;99440.09;4362158;32;34632;-86
2021/05/19 01:56:01;;;;;;;1.20;0.90;;;;;;;12.61;62.13;99438.84;4362325;32;32881;-85
2021/05/19 01:58:31;;;;;;;2.75;1.17;;;;;;;12.53;62.27;99444.59;4368598;32;32639;-84
2021/05/19 02:00:59;;;;;;;2.40;0.98;;;;;;;12.42;62.27;99447.00;4374302;32;32603;-84
2021/05/19 02:03:28;;;;;;;1.83;1.20;;;;;;;12.20;63.12;99441.19;4363041;32;34623;-84
2021/05/19 02:05:56;;;;;;;1.37;0.98;;;;;;;12.34;62.59;99446.56;4374462;32;32187;-85
2021/05/19 02:08:25;;;;;;;4.18;1.27;;;;;;;12.11;62.97;99442.59;4374045;32;33872;-85
2021/05/19 02:10:54;;;;;;;1.95;1.20;;;;;;;11.92;64.18;99442.75;4371748;32;33497;-85
2021/05/19 02:13:22;;;;;;;1.60;1.00;;;;;;;11.69;65.29;99440.47;4371262;32;33685;-86
2021/05/19 02:15:51;;;;;;;5.12;2.80;;;;;;;11.77;65.18;99444.41;4372392;32;33405;-84
2021/05/19 02:18:19;;;;;;;1.95;1.73;;;;;;;11.60;66.00;99447.09;4358879;32;35733;-85
2021/05/19 02:20:47;;;;;;;2.75;1.42;;;;;;;11.45;67.12;99443.47;4370276;32;33972;-85
2021/05/19 02:23:15;;;;;;;2.78;1.58;;;;;;;11.62;66.33;99433.78;4371202;32;34962;-84
2021/05/19 02:25:43;;;;;;;1.60;1.40;;;;;;;11.59;66.79;99440.09;4371757;32;33817;-84
2021/05/19 02:28:12;;;;;;;1.70;1.40;;;;;;;11.51;66.76;99429.94;4359289;32;33482;-84
2021/05/19 02:30:42;;;;;;;2.95;1.50;;;;;;;11.74;65.99;99430.47;4359713;32;32339;-84
2021/05/19 02:33:13;;;;;;;1.33;1.15;;;;;;;11.91;65.02;99430.44;4359585;32;33969;-84
2021/05/19 02:35:41;;;;;;;1.40;1.30;;;;;;;12.05;64.37;99425.22;4371599;32;32905;-84
2021/05/19 02:38:09;;;;;;;4.10;1.40;;;;;;;12.07;64.35;99429.59;4370008;32;33609;-84
2021/05/19 02:40:37;;;;;;;2.20;1.20;;;;;;;11.86;64.90;99429.84;4371611;32;34186;-84
2021/05/19 02:43:05;;;;;;;1.52;1.40;;;;;;;11.62;66.56;99428.50;4357793;32;34245;-85
2021/05/19 02:45:35;;;;;;;1.95;1.17;;;;;;;11.60;66.29;99425.94;4371269;32;34041;-86
2021/05/19 02:48:03;;;;;;;2.45;1.45;;;;;;;11.53;66.43;99424.53;4363761;32;34261;-86
2021/05/19 02:50:31;;;;;;;2.05;1.48;;;;;;;11.57;66.18;99427.88;4371091;32;34448;-86
2021/05/19 02:52:59;;;;;;;1.77;1.30;;;;;;;11.91;65.20;99434.88;4370204;32;33690;-86
2021/05/19 02:55:27;;;;;;;5.32;1.30;;;;;;;12.08;64.55;99426.00;4358102;32;32835;-86
2021/05/19 02:57:55;;;;;;;1.00;0.90;;;;;;;11.99;64.37;99428.22;4368585;32;34029;-86
2021/05/19 03:00:23;;;;;;;1.62;1.17;;;;;;;12.03;63.96;99428.91;4363681;32;35568;-86
2021/05/19 03:02:51;;;;;;;1.92;1.40;;;;;;;11.79;64.60;99425.78;4370851;32;34138;-86
2021/05/19 03:05:19;;;;;;;1.62;1.02;;;;;;;12.05;63.83;99432.31;4370947;32;32765;-86
2021/05/19 03:07:46;;;;;;;2.10;1.30;;;;;;;12.04;64.19;99431.47;4369574;32;35071;-86
2021/05/19 03:10:15;;;;;;;1.98;1.05;;;;;;;12.04;64.10;99436.75;4346993;32;34667;-86
2021/05/19 03:12:44;;;;;;;2.03;1.27;;;;;;;12.22;63.45;99434.88;4373220;32;34017;-86
2021/05/19 03:15:12;;;;;;;2.75;1.05;;;;;;;12.33;63.24;99436.91;4372008;32;32633;-85
2021/05/19 03:17:40;;;;;;;1.23;1.12;;;;;;;12.42;63.03;99441.69;4371859;32;34602;-86
2021/05/19 03:20:09;;;;;;;2.87;0.82;;;;;;;12.51;62.87;99442.97;4373546;32;34460;-85
2021/05/19 03:22:37;;;;;;;2.42;1.30;;;;;;;12.43;63.06;99443.41;4372560;32;33062;-85
2021/05/19 03:25:06;;;;;;;4.70;1.30;;;;;;;12.36;63.26;99447.34;4373974;32;33341;-84
2021/05/19 03:27:34;;;;;;;2.37;1.02;;;;;;;12.22;64.31;99449.91;4373282;32;34714;-85
2021/05/19 03:30:05;;;;;;;1.77;1.10;;;;;;;12.38;63.87;99448.09;4373208;32;34732;-85
2021/05/19 03:32:33;;;;;;;1.30;1.00;;;;;;;12.59;63.26;99448.69;4372830;32;33598;-85
2021/05/19 03:35:03;;;;;;;3.15;1.00;;;;;;;12.64;63.24;99443.13;4360473;32;34049;-85
2021/05/19 03:37:31;;;;;;;1.05;0.80;;;;;;;12.80;63.26;99441.28;4372819;32;33348;-85
2021/05/19 03:40:01;;;;;;;4.12;1.30;;;;;;;12.92;63.10;99443.22;4373510;32;33652;-86
2021/05/19 03:42:29;;;;;;;1.77;1.35;;;;;;;13.07;62.66;99447.59;4374369;32;35090;-86
2021/05/19 03:44:56;;;;;;;3.03;1.40;;;;;;;13.10;63.27;99454.50;4374981;32;33230;-86
2021/05/19 03:47:24;;;;;;;4.05;1.30;;;;;;;13.20;62.64;99454.84;4371534;32;35555;-86
2021/05/19 03:49:52;;;;;;;2.87;1.17;;;;;;;13.44;61.83;99448.09;4373327;32;33759;-86
2021/05/19 03:52:20;;;;;;;2.10;1.50;;;;;;;13.35;61.34;99445.13;4372233;32;34387;-87
2021/05/19 03:54:48;;;;;;;1.83;1.10;;;;;;;13.28;61.48;99445.50;4359608;32;34294;-87
2021/05/19 03:57:17;;;;;;;2.42;1.15;;;;;;;13.21;61.66;99441.47;4348658;32;33075;-86
2021/05/19 03:59:44;;;;;;;1.77;1.52;;;;;;;13.41;61.09;99447.41;4348022;32;34478;-87
2021/05/19 04:02:12;;;;;;;4.72;1.17;;;;;;;13.32;61.43;99443.50;4348510;32;35431;-87
2021/05/19 04:04:40;;;;;;;2.22;1.55;;;;;;;13.32;61.34;99443.50;4361004;32;31296;-87
2021/05/19 04:07:10;;;;;;;3.20;2.00;;;;;;;13.54;60.54;99443.06;4350017;32;31626;-86
2021/05/19 04:09:38;;;;;;;1.90;1.30;;;;;;;13.68;60.97;99439.56;4363351;32;32844;-85
2021/05/19 04:12:06;;;;;;;1.73;0.90;;;;;;;13.63;60.11;99439.00;4336941;32;34077;-85
2021/05/19 04:14:34;;;;;;;2.03;1.15;;;;;;;13.84;59.34;99446.44;4362155;32;32400;-84
2021/05/19 04:17:02;;;;;;;1.48;1.05;;;;;;;13.81;59.96;99451.97;4350548;32;33511;-85
2021/05/19 04:19:30;;;;;;;1.98;1.25;;;;;;;13.95;60.21;99447.56;4350931;32;33793;-84
2021/05/19 04:21:58;;;;;;;1.33;1.10;;;;;;;13.56;61.13;99444.66;4349897;32;33488;-84
2021/05/19 04:24:25;;;;;;;3.00;1.35;;;;;;;13.64;61.80;99438.03;4351906;32;32845;-84
2021/05/19 04:26:53;;;;;;;1.58;1.33;;;;;;;13.86;60.73;99443.69;4350519;32;34576;-84
2021/05/19 04:29:21;;;;;;;1.75;1.00;;;;;;;13.92;60.82;99442.47;4362184;32;33667;-84
2021/05/19 04:31:49;;;;;;;1.58;1.20;;;;;;;14.07;60.28;99442.34;4349812;32;33273;-84
2021/05/19 04:34:17;;;;;;;3.55;1.50;;;;;;;14.07;60.00;99447.66;4362529;32;33144;-85
2021/05/19 04:36:45;;;;;;;2.30;1.20;;;;;;;14.16;59.18;99445.37;4349057;32;32312;-85
2021/05/19 04:39:13;;;;;;;1.77;1.30;;;;;;;14.10;60.65;99446.63;4349164;32;34179;-85
2021/05/19 04:41:41;;;;;;;3.30;1.48;;;;;;;14.28;60.05;99452.53;4342527;32;34344;-85
2021/05/19 04:44:09;;;;;;;2.05;1.37;;;;;;;14.41;60.02;99445.47;4384314;32;33332;-85
2021/05/19 04:46:37;;;;;;;3.20;1.77;;;;;;;14.66;59.35;99449.22;4362903;32;35613;-85
2021/05/19 04:49:06;;;;;;;1.65;1.23;;;;;;;14.73;59.07;99445.22;4349969;32;34625;-85
2021/05/19 04:51:34;;;;;;;2.72;1.10;;;;;;;15.03;59.00;99445.81;4351406;32;33411;-85
2021/05/19 04:54:02;;;;;;;3.05;1.30;;;;;;;15.32;57.97;99435.84;4352337;32;33894;-85
2021/05/19 04:56:31;;;;;;;3.05;1.00;;;;;;;15.60;57.00;99440.09;4364350;32;34849;-85
2021/05/19 04:58:58;;;;;;;1.30;1.20;;;;;;;15.53;56.55;99427.34;4363673;32;34479;-84
2021/05/19 05:01:26;;;;;;;1.10;1.00;;;;;;;15.61;55.65;99431.13;4349802;32;33198;-85
2021/05/19 05:03:54;;;;;;;1.95;1.37;;;;;;;15.80;55.50;99433.38;4374614;32;33004;-85
2021/05/19 05:06:23;;;;;;;1.80;1.10;;;;;;;15.68;55.20;99438.75;4368787;32;34462;-86
2021/05/19 05:08:51;;;;;;;2.62;1.30;;;;;;;15.69;55.42;99441.28;4362171;32;34345;-85
2021/05/19 05:11:19;;;;;;;3.12;1.42;;;;;;;15.56;55.97;99449.25;4362273;32;32354;-85
2021/05/19 05:13:47;;;;;;;3.42;1.50;;;;;;;15.74;56.04;99439.16;4353016;32;34741;-86
2021/05/19 05:16:15;;;;;;;1.70;1.12;;;;;;;15.80;55.80;99443.19;4362543;32;34175;-86
2021/05/19 05:18:43;;;;;;;1.52;1.35;;;;;;;15.95;55.64;99439.47;4365579;32;33181;-86
2021/05/19 05:21:12;;;;;;;1.77;1.30;;;;;;;15.93;54.84;99443.16;4363356;32;33166;-86
2021/05/19 05:23:40;;;;;;;2.35;1.30;;;;;;;16.15;54.85;99446.00;4349960;32;34845;-91
2021/05/19 05:26:09;;;;;;;3.67;1.10;;;;;;;16.16;53.97;99444.19;4350988;32;33739;-90
2021/05/19 05:28:36;;;;;;;1.90;1.55;;;;;;;16.19;53.78;99450.16;4362977;32;35677;-88
2021/05/19 05:31:04;;;;;;;1.48;1.02;;;;;;;16.33;53.48;99452.66;4366629;32;34247;-89
2021/05/19 05:33:32;;;;;;;3.45;1.50;;;;;;;16.20;52.86;99451.84;4370259;32;33735;-90
2021/05/19 05:36:04;;;;;;;1.30;1.10;;;;;;;16.18;52.91;99460.91;4375256;32;33742;-89
2021/05/19 05:38:32;;;;;;;1.73;1.50;;;;;;;16.18;53.43;99452.91;4370926;32;33263;-89
2021/05/19 05:41:00;;;;;;;2.28;1.00;;;;;;;16.26;52.64;99455.88;4361529;32;34319;-88
2021/05/19 05:43:28;;;;;;;4.22;2.55;;;;;;;16.16;54.35;99452.19;4373777;32;34075;-88
2021/05/19 05:45:56;;;;;;;3.53;1.65;;;;;;;16.25;53.99;99448.84;4373797;32;34147;-89
2021/05/19 05:48:24;;;;;;;4.25;1.50;;;;;;;16.41;52.38;99446.75;4363833;32;35130;-89
2021/05/19 05:50:52;;;;;;;1.62;1.10;;;;;;;16.19;53.20;99451.94;4365033;32;34039;-89
2021/05/19 05:53:21;;;;;;;5.07;1.42;;;;;;;16.06;53.78;99455.50;4364938;32;33665;-89
2021/05/19 05:55:48;;;;;;;5.50;1.23;;;;;;;15.98;54.00;99444.53;4370585;32;34058;-89
2021/05/19 05:58:16;;;;;;;1.75;1.40;;;;;;;15.99;54.39;99448.06;4376951;32;34428;-90
2021/05/19 06:00:44;;;;;;;2.90;1.67;;;;;;;16.25;54.30;99462.16;4373758;32;34438;-90
2021/05/19 06:03:12;;;;;;;3.22;1.27;;;;;;;16.38;53.97;99460.31;4375949;32;32440;-89
2021/05/19 06:05:41;;;;;;;3.95;1.48;;;;;;;16.62;53.10;99461.19;4370482;32;32639;-90
2021/05/19 06:08:09;;;;;;;2.28;1.30;;;;;;;16.74;53.28;99462.09;4370045;32;35435;-89
2021/05/19 06:10:37;;;;;;;1.75;1.25;;;;;;;16.70;53.16;99462.41;4365610;32;33739;-88
2021/05/19 06:13:06;;;;;;;2.28;1.00;;;;;;;16.76;52.64;99456.66;4377483;32;32707;-88
2021/05/19 06:15:33;;;;;;;3.17;1.45;;;;;;;16.65;52.96;99468.09;4364896;32;34046;-89
2021/05/19 06:18:04;;;;;;;3.42;1.65;;;;;;;16.83;52.19;99457.91;4365924;32;34638;-89
2021/05/19 06:20:32;;;;;;;3.15;1.20;;;;;;;16.85;52.99;99459.50;4365267;32;35340;-89
2021/05/19 06:23:00;;;;;;;3.53;2.47;;;;;;;16.89;51.72;99458.28;4352995;32;35248;-89
2021/05/19 06:25:28;;;;;;;3.72;1.55;;;;;;;17.01;51.90;99447.66;4365529;32;34390;-89
2021/05/19 06:27:56;;;;;;;2.42;0.90;;;;;;;17.08;51.39;99451.56;4364977;32;34635;-89
2021/05/19 06:30:23;;;;;;;3.30;1.65;;;;;;;17.20;51.08;99447.13;4365542;32;33946;-89
2021/05/19 06:32:51;;;;;;;1.98;1.40;;;;;;;16.84;53.07;99446.25;4366003;32;34202;-89
2021/05/19 06:35:19;;;;;;;3.20;1.10;;;;;;;16.78;53.49;99446.72;4353253;32;35483;-89
2021/05/19 06:37:47;;;;;;;4.25;1.50;;;;;;;16.95;52.53;99446.31;4365711;32;34558;-89
2021/05/19 06:40:15;;;;;;;1.87;1.67;;;;;;;17.23;53.31;99449.53;4365495;32;33524;-89
2021/05/19 06:42:43;;;;;;;2.58;1.48;;;;;;;17.16;51.97;99446.50;4365790;32;34164;-89
2021/05/19 06:45:11;;;;;;;1.55;1.20;;;;;;;17.29;52.35;99443.75;4378077;32;34087;-89
2021/05/19 06:47:39;;;;;;;3.20;1.40;;;;;;;17.72;51.52;99443.06;4365462;32;35482;-89
2021/05/19 06:50:08;;;;;;;4.87;1.60;;;;;;;17.62;51.60;99442.94;4364606;32;33510;-90
2021/05/19 06:52:36;;;;;;;1.70;1.23;;;;;;;17.96;50.04;99435.81;4365278;32;34050;-90
2021/05/19 06:55:51;;;;;;;1.98;1.15;;;;;;;18.03;49.94;99433.47;4361884;32;34792;-91
2021/05/19 06:58:19;;;;;;;5.55;1.40;;;;;;;18.32;49.22;99426.62;4353289;32;34231;-91
2021/05/19 07:01:24;;;;;;;1.62;1.23;;;;;;;18.26;48.44;99431.63;4332357;33;34231;-91
2021/05/19 07:03:52;;;;;;;2.90;1.20;;;;;;;18.22;48.90;99427.50;4329929;33;33585;-90
2021/05/19 07:06:21;;;;;;;1.35;1.23;;;;;;;18.39;48.57;99435.00;4318684;33;33528;-90
2021/05/19 07:08:50;;;;;;;3.47;1.50;;;;;;;18.41;48.21;99436.56;4321900;33;32880;-94
2021/05/19 07:11:43;;;;;;;3.28;1.27;;;;;;;18.05;48.84;99428.87;4398098;32;33093;-90
2021/05/19 07:14:15;;;;;;;2.83;1.20;;;;;;;18.60;49.75;99432.38;4377109;32;35534;-90
2021/05/19 07:19:50;;;;;;;1.85;1.30;;;;;;;18.55;47.09;99432.75;4377315;32;33431;-90
2021/05/19 07:22:19;;;;;;;3.90;1.00;;;;;;;18.37;47.97;99428.91;4377679;32;34616;-90
2021/05/19 07:24:48;;;;;;;2.72;1.30;;;;;;;18.33;47.69;99432.84;4389494;32;33269;-90
2021/05/19 07:27:16;;;;;;;5.97;1.15;;;;;;;18.66;48.26;99424.72;4389834;32;33528;-90
2021/05/19 07:29:44;;;;;;;2.40;1.15;;;;;;;18.82;48.65;99421.63;4377223;32;35261;-90
2021/05/19 07:32:12;;;;;;;1.87;1.10;;;;;;;18.96;46.19;99419.63;4376778;32;35148;-90
2021/05/19 07:34:40;;;;;;;4.12;1.60;;;;;;;19.14;47.34;99405.53;4376689;32;33631;-90
2021/05/19 07:37:10;;;;;;;6.15;1.52;;;;;;;19.00;46.70;99411.22;4401764;32;33931;-90
2021/05/19 07:39:38;;;;;;;4.15;1.37;;;;;;;19.30;47.13;99404.22;4375893;32;35580;-90
2021/05/19 07:42:06;;;;;;;1.62;1.52;;;;;;;19.27;46.27;99401.78;4376394;32;34243;-90
2021/05/19 07:44:34;;;;;;;1.45;1.35;;;;;;;19.17;46.69;99405.25;4377446;32;33101;-91
2021/05/19 07:47:00;;;;;;;2.80;1.67;;;;;;;19.44;45.68;99398.50;4376683;32;32620;-90
2021/05/19 07:49:27;;;;;;;3.53;1.60;;;;;;;19.57;47.61;99395.62;4376627;32;34350;-90
2021/05/19 07:51:53;;;;;;;3.87;1.52;;;;;;;19.53;47.49;99402.22;4376630;32;34632;-90
2021/05/19 07:54:26;;;;;;;3.53;1.60;;;;;;;19.62;46.66;99396.94;4376304;32;34003;-91
2021/05/19 07:56:59;;;;;;;5.40;2.03;;;;;;;19.76;46.75;99395.72;4376315;32;35249;-90
2021/05/19 07:59:32;;;;;;;5.05;1.80;;;;;;;19.99;46.54;99401.75;4389190;32;34261;-90
2021/05/19 08:02:03;;;;;;;3.05;1.58;;;;;;;19.92;45.79;99393.38;4388884;32;35615;-90
2021/05/19 08:04:32;;;;;;;5.95;3.08;;;;;;;20.45;45.89;99402.94;4401708;32;33612;-90
2021/05/19 08:06:59;;;;;;;4.05;1.70;;;;;;;20.62;45.12;99396.06;4376092;32;35595;-90
2021/05/19 08:09:27;;;;;;;2.00;1.52;;;;;;;20.26;44.11;99401.06;4376095;32;35445;-90
2021/05/19 08:11:54;;;;;;;2.83;1.60;;;;;;;20.36;45.14;99396.56;4376388;32;34282;-90
2021/05/19 08:14:21;;;;;;;2.10;1.35;;;;;;;20.62;44.73;99396.91;4401238;32;34009;-90
2021/05/19 08:16:47;;;;;;;2.72;1.40;;;;;;;20.69;43.24;99383.78;4388790;32;33896;-90
2021/05/19 08:19:14;;;;;;;3.65;1.45;;;;;;;20.74;44.35;99391.41;4388595;32;34604;-90
2021/05/19 08:21:42;;;;;;;3.60;1.60;;;;;;;21.00;43.46;99387.16;4388772;32;32726;-90
2021/05/19 08:24:10;;;;;;;4.30;1.50;;;;;;;21.27;42.26;99381.03;4401074;32;33756;-90
2021/05/19 08:26:39;;;;;;;3.45;1.80;;;;;;;20.81;42.33;99385.34;4388424;32;33972;-91
2021/05/19 08:29:07;;;;;;;3.47;1.90;;;;;;;21.12;42.99;99377.94;4388384;32;34339;-90
2021/05/19 08:31:35;;;;;;;3.62;1.48;;;;;;;21.30;41.94;99385.25;4388657;32;34429;-90
2021/05/19 08:34:13;;;;;;;1.50;1.20;;;;;;;21.30;41.26;99375.34;4387555;32;33710;-90
2021/05/19 08:36:41;;;;;;;2.45;1.33;;;;;;;21.61;40.99;99373.31;4401075;32;33592;-90
2021/05/19 08:39:09;;;;;;;3.85;1.85;;;;;;;21.76;42.92;99370.13;4400907;32;35602;-90
2021/05/19 08:41:38;;;;;;;1.83;1.52;;;;;;;21.96;39.70;99371.72;4375767;32;34438;-90
2021/05/19 08:44:06;;;;;;;2.20;1.45;;;;;;;21.93;39.77;99362.13;4375734;32;34083;-90
2021/05/19 08:46:33;;;;;;;3.62;1.40;;;;;;;21.72;40.72;99365.06;4375845;32;34444;-90
2021/05/19 08:49:05;;;;;;;3.72;1.55;;;;;;;22.03;42.90;99367.44;4387865;32;34201;-90
2021/05/19 08:51:33;;;;;;;4.12;1.80;;;;;;;22.22;39.91;99367.34;4376289;32;34815;-90
2021/05/19 08:54:02;;;;;;;4.85;1.37;;;;;;;22.07;40.40;99363.44;4386991;32;99435;-89
2021/05/19 08:56:30;;;;;;;3.22;2.05;;;;;;;22.11;40.31;99354.09;4353401;32;35694;-89
2021/05/19 08:58:57;;;;;;;2.85;1.75;;;;;;;22.17;39.34;99358.91;4377740;32;35641;-90
2021/05/19 09:01:26;;;;;;;4.95;1.50;;;;;;;22.10;39.04;99356.94;4377791;32;34291;-90
2021/05/19 09:04:02;;;;;;;1.87;1.73;;;;;;;22.27;39.81;99353.47;4377699;32;33713;-90
2021/05/19 09:06:35;;;;;;;3.00;1.80;;;;;;;22.06;41.28;99356.38;4377932;32;34419;-89
2021/05/19 09:09:34;;;;;;;2.58;2.12;;;;;;;22.21;38.16;99341.44;4390545;32;34680;-89
2021/05/19 09:12:08;;;;;;;2.95;1.80;;;;;;;22.38;38.90;99349.69;4377793;32;35289;-90
2021/05/19 09:14:54;;;;;;;3.50;1.87;;;;;;;22.56;38.74;99345.16;4378315;32;33082;-89
2021/05/19 09:17:27;;;;;;;3.80;1.50;;;;;;;22.58;41.48;99340.44;4390199;32;34491;-89
2021/05/19 09:20:05;;;;;;;3.78;1.65;;;;;;;22.60;40.21;99335.78;4377717;32;34413;-89
2021/05/19 09:22:35;;;;;;;2.45;1.95;;;;;;;23.03;37.75;99339.50;4377645;32;34449;-89
2021/05/19 09:25:24;;;;;;;3.37;2.00;;;;;;;22.51;37.36;99334.00;4390268;32;33237;-89
2021/05/19 09:27:56;;;;;;;4.35;1.83;;;;;;;22.52;39.14;99334.84;4377581;32;34489;-90
2021/05/19 09:30:45;;;;;;;2.35;2.05;;;;;;;22.84;37.96;99340.50;4365305;32;34629;-90
2021/05/19 09:33:24;;;;;;;2.35;2.15;;;;;;;22.85;39.02;99328.72;4375037;32;35408;-90
2021/05/19 09:36:21;;;;;;;7.12;2.17;;;;;;;22.58;39.31;99328.84;4362954;32;34148;-90
2021/05/19 09:38:51;;;;;;;1.58;1.35;;;;;;;22.20;38.09;99339.75;4361869;32;33841;-91
2021/05/19 09:41:28;;;;;;;1.52;1.33;;;;;;;21.89;37.94;99330.31;4375369;32;35671;-89
2021/05/19 09:43:58;;;;;;;4.20;1.52;;;;;;;21.27;39.31;99342.56;4350603;32;33526;-90
2021/05/19 09:49:17;;;;;;;2.03;1.77;;;;;;;20.80;41.57;99334.50;4374751;32;34547;-90
2021/05/19 09:51:50;;;;;;;2.53;1.30;;;;;;;20.73;41.66;99344.09;4374987;32;34619;-89
2021/05/19 09:54:25;;;;;;;3.60;1.33;;;;;;;20.68;41.30;99331.13;4350319;32;34340;-89
2021/05/19 09:56:59;;;;;;;4.32;1.33;;;;;;;20.55;42.36;99335.94;4375163;32;33486;-90
2021/05/19 09:59:27;;;;;;;2.95;1.75;;;;;;;20.53;42.14;99333.41;4350272;32;34549;-89
2021/05/19 10:01:57;;;;;;;2.28;1.48;;;;;;;20.69;40.74;99327.44;4362419;32;35479;-90
2021/05/19 10:04:33;;;;;;;2.42;1.30;;;;;;;20.41;41.10;99330.00;4374117;32;32805;-89
2021/05/19 10:07:01;;;;;;;3.22;1.35;;;;;;;20.30;41.19;99326.59;4374589;32;34709;-90
2021/05/19 10:09:30;;;;;;;1.98;1.65;;;;;;;20.06;41.72;99324.31;4362391;32;34125;-89
2021/05/19 10:11:58;;;;;;;3.58;1.37;;;;;;;20.20;41.20;99321.22;4362603;32;34614;-89
2021/05/19 10:14:26;;;;;;;2.62;1.42;;;;;;;20.19;42.34;99324.88;4362534;32;34409;-90
2021/05/19 10:16:59;;;;;;;3.33;1.40;;;;;;;20.44;42.15;99329.69;4362645;32;34037;-90
2021/05/19 10:19:31;;;;;;;2.90;1.37;;;;;;;20.36;41.62;99324.16;4375034;32;35159;-90
2021/05/19 10:21:59;;;;;;;3.22;1.30;;;;;;;20.31;42.38;99320.22;4374933;32;34151;-90
2021/05/19 10:25:18;;;;;;;2.08;1.40;;;;;;;20.33;42.31;99312.91;4362524;32;34432;-89
2021/05/19 10:27:54;;;;;;;2.65;1.20;;;;;;;20.32;42.66;99311.19;4374798;32;33785;-89
2021/05/19 10:30:38;;;;;;;2.08;1.48;;;;;;;20.30;43.35;99311.34;4374858;32;35629;-89
2021/05/19 10:33:30;;;;;;;1.98;1.50;;;;;;;20.32;44.49;99314.75;4362927;32;34211;-89
2021/05/19 10:36:24;;;;;;;6.20;1.00;;;;;;;20.14;48.55;99308.37;4374611;32;33523;-89
2021/05/19 10:39:07;;;;;;;0.70;0.70;;;;;;;20.16;47.47;99304.56;4374678;32;35110;-90
2021/05/19 10:41:39;;;;;;;3.30;1.05;;;;;;;20.33;45.35;99302.19;4362136;32;33585;-90
2021/05/19 10:44:08;;;;;;;;;;;;;;;20.52;44.56;99299.53;4363261;32;33438;-89
2021/05/19 10:47:03;;;;;;;1.35;1.02;;;;;;;20.86;43.86;99301.72;4375396;32;34438;-89
2021/05/19 10:57:20;;;;;;;2.85;1.62;;;;;;;21.11;42.69;99286.81;4364097;32;35694;-90
2021/05/19 11:00:32;;;;;;;3.15;2.05;;;;;;;20.83;42.21;99283.22;4359959;32;34436;-90
2021/05/19 11:03:02;;;;;;;2.45;1.60;;;;;;;20.52;44.84;99287.94;4362541;32;35275;-89
2021/05/19 11:05:35;;;;;;;7.60;2.47;;;;;;;20.81;43.55;99279.84;4374485;32;33535;-89
2021/05/19 11:08:12;;;;;;;7.45;1.92;;;;;;;20.83;44.34;99270.66;4374816;32;34683;-89
2021/05/19 11:10:48;;;;;;;2.00;1.70;;;;;;;20.72;44.07;99278.88;4374602;32;32676;-89
2021/05/19 11:13:18;;;;;;;3.58;1.98;;;;;;;20.74;43.74;99276.03;4361990;32;33652;-89
2021/05/19 11:20:56;;;;;;;;;;;;;;;20.60;45.35;99272.81;4374942;32;34223;-89
2021/05/19 11:23:25;;;;;;;2.53;1.98;;;;;;;20.77;44.78;99265.03;4362082;32;32640;-89
2021/05/19 11:26:13;;;;;;;4.80;1.90;;;;;;;20.84;45.18;99268.81;4386256;32;32627;-91
2021/05/19 11:28:43;;;;;;;2.30;1.50;;;;;;;20.73;45.15;99266.31;4350151;32;33996;-91
2021/05/19 11:31:14;;;;;;;2.28;1.40;;;;;;;20.57;44.02;99262.37;4352163;32;34631;-91
2021/05/19 11:34:01;;;;;;;2.30;1.67;;;;;;;20.97;42.69;99263.97;4353836;32;34084;-91
2021/05/19 11:36:52;;;;;;;1.92;1.60;;;;;;;20.47;46.57;99274.97;4371186;32;34491;-91
2021/05/19 11:39:53;;;;;;;5.53;2.05;;;;;;;20.20;46.86;99273.81;4370157;32;34390;-91
2021/05/19 11:42:40;;;;;;;5.65;2.10;;;;;;;20.12;47.45;99276.34;4364104;32;35163;-91
2021/05/19 11:45:11;;;;;;;4.20;2.80;;;;;;;20.01;51.70;99281.00;4361999;32;32668;-92
2021/05/19 11:47:41;;;;;;;5.60;2.00;;;;;;;19.98;53.10;99283.94;4386950;32;34059;-92
2021/05/19 11:50:29;;;;;;;7.32;2.53;;;;;;;19.84;54.61;99283.34;4368833;32;34738;-92
2021/05/19 11:53:13;;;;;;;5.32;2.58;;;;;;;19.41;58.08;99294.34;4387429;32;34721;-92
2021/05/19 11:55:56;;;;;;;4.03;2.95;;;;;;;18.93;59.52;99292.31;4393429;32;33420;-91
2021/05/19 11:58:39;;;;;;;5.22;2.92;;;;;;;17.24;61.06;99297.34;4400763;32;35163;-92
2021/05/19 12:01:21;;;;;;;5.28;4.10;;;;;;;16.65;62.34;99293.00;4386736;32;34156;-90
2021/05/19 12:04:15;;;;;;;6.32;4.45;;;;;;;16.39;64.18;99304.81;4385386;32;33925;-92
2021/05/19 12:06:59;;;;;;;7.32;4.32;;;;;;;15.86;66.21;99309.66;4389538;32;34100;-91
2021/05/19 12:09:41;;;;;;;7.50;4.57;;;;;;;15.94;66.42;99311.72;4356301;32;34222;-91
2021/05/19 12:12:33;;;;;;;8.20;5.47;;;;;;;16.12;66.20;99319.22;4361092;32;33506;-91
2021/05/19 12:15:30;;;;;;;6.00;4.70;;;;;;;15.97;66.84;99333.66;4378845;32;34649;-91